Main page
METAR-TAF:

METAR-TAF

Airports :

Porto, Portugal

Porto Airport

latitude: 41-14N, longitude: 008-41W, elevation: 69 m

Current weather observation

The report was made 19 minutes ago, at 08:30 UTC
Wind 9 kt from the South
Temperature 19°C
Humidity 88%
Pressure 1013 hPa
Visibility 10 km or more
Few clouds at a height of 900 ft
Scattered clouds at a height of 1400 ft
Broken clouds at a height of 3500 ft

METAR: LPPR 260830Z 18009KT 9999 FEW009 SCT014 BKN035 19/17 Q1013

Time: 09:49 (08:49 UTC)


TAF: missing

Weather observations and forecasts of more than 4000 airports (METAR and TAF reports).

The available stations are represented by yellow and red dots on the map.

Hover mouse over dot to see the name of the station.

Then click to see weather observations and forecasts.

To change the map : click on the green buttons with a black cross to zoom in, on the green button with a dash to zoom out, or on the green arrows for adjacent maps.


METAR-TAF: